createdAt,value
2019-04-26T00:00:59.586Z,14.81
2019-04-26T00:01:59.581Z,14.72
2019-04-26T00:02:59.559Z,14.64
2019-04-26T00:03:59.587Z,14.62
2019-04-26T00:04:59.572Z,14.62
2019-04-26T00:05:59.533Z,14.50
2019-04-26T00:06:59.525Z,14.43
2019-04-26T00:07:59.527Z,14.40
2019-04-26T00:08:59.499Z,14.27
2019-04-26T00:09:59.493Z,14.28
2019-04-26T00:10:59.545Z,14.28
2019-04-26T00:11:59.468Z,14.21
2019-04-26T00:12:59.468Z,14.12
2019-04-26T00:13:59.449Z,14.09
2019-04-26T00:14:59.438Z,14.04
2019-04-26T00:15:59.420Z,14.06
2019-04-26T00:16:59.693Z,14.03
2019-04-26T00:17:59.394Z,14.04
2019-04-26T00:18:59.433Z,14.00
2019-04-26T00:19:59.377Z,13.99
2019-04-26T00:20:59.360Z,13.95
2019-04-26T00:21:59.385Z,13.91
2019-04-26T00:22:59.359Z,13.89
2019-04-26T00:23:59.337Z,13.85
2019-04-26T00:25:11.407Z,13.89
2019-04-26T00:25:59.308Z,13.85
2019-04-26T00:26:59.291Z,13.77
2019-04-26T00:27:59.345Z,13.77
2019-04-26T00:28:59.274Z,13.73
2019-04-26T00:29:59.265Z,13.66
2019-04-26T00:30:59.252Z,13.67
2019-04-26T00:31:59.242Z,13.54
2019-04-26T00:32:59.265Z,13.55
2019-04-26T00:33:59.233Z,13.51
2019-04-26T00:34:59.208Z,13.44
2019-04-26T00:35:59.210Z,13.41
2019-04-26T00:36:59.180Z,13.32
2019-04-26T00:37:59.183Z,13.25
2019-04-26T00:38:59.194Z,13.23
2019-04-26T00:39:59.141Z,13.19
2019-04-26T00:40:59.154Z,13.23
2019-04-26T00:41:59.121Z,13.12
2019-04-26T00:42:59.113Z,13.19
2019-04-26T00:43:59.100Z,13.10
2019-04-26T00:44:59.119Z,13.10
2019-04-26T00:45:59.076Z,12.97
2019-04-26T00:46:59.095Z,12.95
2019-04-26T00:47:59.054Z,12.95
2019-04-26T00:48:59.055Z,12.90
2019-04-26T00:49:59.060Z,12.85
2019-04-26T00:50:59.028Z,12.78
2019-04-26T00:51:59.002Z,12.75
2019-04-26T00:52:58.991Z,12.78
2019-04-26T00:53:59.025Z,12.78
2019-04-26T00:54:58.975Z,12.78
2019-04-26T00:55:58.984Z,12.77
2019-04-26T00:56:58.968Z,12.72
2019-04-26T00:57:58.933Z,12.75
2019-04-26T00:58:58.926Z,12.65
2019-04-26T00:59:58.914Z,12.65
2019-04-26T01:00:58.942Z,12.54
2019-04-26T01:01:58.932Z,12.56
2019-04-26T01:02:58.889Z,12.57
2019-04-26T01:03:58.870Z,12.49
2019-04-26T01:04:58.857Z,12.45
2019-04-26T01:06:00.074Z,12.39
2019-04-26T01:06:58.878Z,12.31
2019-04-26T01:07:58.892Z,12.23
2019-04-26T01:08:58.808Z,12.28
2019-04-26T01:09:58.812Z,12.17
2019-04-26T01:10:58.815Z,12.14
2019-04-26T01:11:58.780Z,12.09
2019-04-26T01:12:58.787Z,12.13
2019-04-26T01:13:58.757Z,12.12
2019-04-26T01:14:58.766Z,12.02
2019-04-26T01:15:58.739Z,12.04
2019-04-26T01:16:58.730Z,12.01
2019-04-26T01:17:58.736Z,12.01
2019-04-26T01:18:58.705Z,12.02
2019-04-26T01:19:58.679Z,11.95
2019-04-26T01:20:58.678Z,12.01
2019-04-26T01:21:58.667Z,12.04
2019-04-26T01:22:58.651Z,11.96
2019-04-26T01:23:58.693Z,12.04
2019-04-26T01:24:58.622Z,12.12
2019-04-26T01:25:58.617Z,12.12
2019-04-26T01:26:58.611Z,12.16
2019-04-26T01:27:58.621Z,12.07
2019-04-26T01:28:58.635Z,12.14
2019-04-26T01:29:58.568Z,12.19
2019-04-26T01:30:58.563Z,12.17
2019-04-26T01:31:58.547Z,12.24
2019-04-26T01:32:58.602Z,12.23
2019-04-26T01:33:58.547Z,12.27
2019-04-26T01:34:58.554Z,12.28
2019-04-26T01:35:58.519Z,12.32
2019-04-26T01:36:58.589Z,12.29
2019-04-26T01:37:58.487Z,12.34
2019-04-26T01:38:58.470Z,12.39
2019-04-26T01:39:58.454Z,12.34
2019-04-26T01:40:58.466Z,12.32
2019-04-26T01:41:58.448Z,12.29
2019-04-26T01:42:58.422Z,12.35
2019-04-26T01:43:58.411Z,12.32
2019-04-26T01:44:58.454Z,12.32
2019-04-26T01:45:58.433Z,12.35
2019-04-26T01:46:58.369Z,12.31
2019-04-26T01:47:58.372Z,12.29
2019-04-26T01:48:58.362Z,12.21
2019-04-26T01:49:58.356Z,12.14
2019-04-26T01:50:58.354Z,12.05
2019-04-26T01:51:58.369Z,12.07
2019-04-26T01:52:58.314Z,12.02
2019-04-26T01:53:58.299Z,11.83
2019-04-26T01:54:58.283Z,11.80
2019-04-26T01:55:58.326Z,11.83
2019-04-26T01:56:58.258Z,11.78
2019-04-26T01:57:58.250Z,11.78
2019-04-26T01:58:58.277Z,11.80
2019-04-26T01:59:58.220Z,11.73
2019-04-26T02:00:58.222Z,11.60
2019-04-26T02:02:03.593Z,11.67
2019-04-26T02:02:58.196Z,11.54
2019-04-26T02:03:58.183Z,11.64
2019-04-26T02:04:58.223Z,11.58
2019-04-26T02:05:58.183Z,11.49
2019-04-26T02:06:58.147Z,11.42
2019-04-26T02:07:58.124Z,11.39
2019-04-26T02:08:59.013Z,11.25
2019-04-26T02:10:12.650Z,11.39
2019-04-26T02:10:58.092Z,11.27
2019-04-26T02:11:58.091Z,11.27
2019-04-26T02:12:58.066Z,11.28
2019-04-26T02:13:58.056Z,11.14
2019-04-26T02:14:58.085Z,11.15
2019-04-26T02:15:58.032Z,11.07
2019-04-26T02:16:58.030Z,11.09
2019-04-26T02:17:58.093Z,11.06
2019-04-26T02:18:58.504Z,11.07
2019-04-26T02:19:57.985Z,11.02
2019-04-26T02:20:58.064Z,11.07
2019-04-26T02:21:58.013Z,10.96
2019-04-26T02:22:57.955Z,11.06
2019-04-26T02:23:57.959Z,10.96
2019-04-26T02:24:57.925Z,10.97
2019-04-26T02:25:57.968Z,10.89
2019-04-26T02:26:57.917Z,10.88
2019-04-26T02:27:57.913Z,10.88
2019-04-26T02:28:57.914Z,10.84
2019-04-26T02:29:57.971Z,10.88
2019-04-26T02:30:57.874Z,10.88
2019-04-26T02:31:57.897Z,10.86
2019-04-26T02:32:57.869Z,10.76
2019-04-26T02:33:58.515Z,10.76
2019-04-26T02:34:57.864Z,10.84
2019-04-26T02:35:57.821Z,10.86
2019-04-26T02:36:59.041Z,10.81
2019-04-26T02:37:58.500Z,10.81
2019-04-26T02:38:57.805Z,10.74
2019-04-26T02:41:09.460Z,10.73
2019-04-26T02:42:09.449Z,10.78
2019-04-26T02:43:09.384Z,10.71
2019-04-26T02:44:09.495Z,10.66
2019-04-26T02:45:09.297Z,10.60
2019-04-26T02:46:09.278Z,10.61
2019-04-26T02:47:09.269Z,10.52
2019-04-26T02:48:09.255Z,10.53
2019-04-26T02:49:09.257Z,10.44
2019-04-26T02:50:09.267Z,10.47
2019-04-26T02:51:09.218Z,10.36
2019-04-26T02:52:09.234Z,10.42
2019-04-26T02:53:09.194Z,10.42
2019-04-26T02:54:09.192Z,10.33
2019-04-26T02:55:09.191Z,10.32
2019-04-26T02:56:09.159Z,10.32
2019-04-26T02:57:09.153Z,10.34
2019-04-26T02:58:09.179Z,10.30
2019-04-26T02:59:09.122Z,10.25
2019-04-26T03:00:09.110Z,10.22
2019-04-26T03:01:09.140Z,10.26
2019-04-26T03:02:09.090Z,10.22
2019-04-26T03:03:09.082Z,10.18
2019-04-26T03:04:09.108Z,10.22
2019-04-26T03:05:09.059Z,10.22
2019-04-26T03:06:09.048Z,10.12
2019-04-26T03:07:09.093Z,10.23
2019-04-26T03:08:09.031Z,10.18
2019-04-26T03:09:09.066Z,10.08
2019-04-26T03:10:09.035Z,10.11
2019-04-26T03:11:08.998Z,10.07
2019-04-26T03:12:09.021Z,10.07
2019-04-26T03:13:08.991Z,10.04
2019-04-26T03:14:08.967Z,9.99
2019-04-26T03:15:14.040Z,10.04
2019-04-26T03:16:09.953Z,9.99
2019-04-26T03:17:08.933Z,10.08
2019-04-26T03:18:08.944Z,10.05
2019-04-26T03:19:08.904Z,10.09
2019-04-26T03:20:08.934Z,9.97
2019-04-26T03:21:08.889Z,10.11
2019-04-26T03:22:08.879Z,10.08
2019-04-26T03:23:08.884Z,10.05
2019-04-26T03:24:08.850Z,9.97
2019-04-26T03:25:19.859Z,9.99
2019-04-26T03:26:08.838Z,9.99
2019-04-26T03:27:08.823Z,10.02
2019-04-26T03:28:08.860Z,9.96
2019-04-26T03:29:08.800Z,9.90
2019-04-26T03:30:19.972Z,9.89
2019-04-26T03:31:09.785Z,9.91
2019-04-26T03:32:15.558Z,9.91
2019-04-26T03:33:08.843Z,9.89
2019-04-26T03:34:09.942Z,9.84
2019-04-26T03:35:08.917Z,9.78
2019-04-26T03:36:08.709Z,9.74
2019-04-26T03:37:20.414Z,9.74
2019-04-26T03:38:09.705Z,9.66
2019-04-26T03:39:08.720Z,9.58
2019-04-26T03:40:08.659Z,9.58
2019-04-26T03:41:08.659Z,9.58
2019-04-26T03:42:08.644Z,9.50
2019-04-26T03:43:08.663Z,9.53
2019-04-26T03:44:09.648Z,9.47
2019-04-26T03:45:08.623Z,9.50
2019-04-26T03:46:08.585Z,9.51
2019-04-26T03:47:08.585Z,9.50
2019-04-26T03:48:08.580Z,9.54
2019-04-26T03:49:08.559Z,9.51
2019-04-26T03:50:08.562Z,9.42
2019-04-26T03:51:08.540Z,9.47
2019-04-26T03:52:08.522Z,9.46
2019-04-26T03:53:08.514Z,9.39
2019-04-26T03:54:08.494Z,9.36
2019-04-26T03:55:08.544Z,9.31
2019-04-26T03:56:08.481Z,9.36
2019-04-26T03:57:08.486Z,9.35
2019-04-26T03:58:08.458Z,9.33
2019-04-26T03:59:08.460Z,9.38
2019-04-26T04:00:08.438Z,9.36
2019-04-26T04:01:08.449Z,9.42
2019-04-26T04:02:08.425Z,9.40
2019-04-26T04:03:08.393Z,9.48
2019-04-26T04:04:08.446Z,9.38
2019-04-26T04:05:08.381Z,9.33
2019-04-26T04:06:08.369Z,9.38
2019-04-26T04:07:08.347Z,9.47
2019-04-26T04:08:08.372Z,9.40
2019-04-26T04:09:08.340Z,9.40
2019-04-26T04:10:19.335Z,9.36
2019-04-26T04:11:08.344Z,9.32
2019-04-26T04:12:11.724Z,9.50
2019-04-26T04:13:08.278Z,9.48
2019-04-26T04:14:08.409Z,9.46
2019-04-26T04:15:08.277Z,9.42
2019-04-26T04:16:08.280Z,9.43
2019-04-26T04:17:08.236Z,9.38
2019-04-26T04:18:08.252Z,9.43
2019-04-26T04:19:08.224Z,9.35
2019-04-26T04:20:08.229Z,9.38
2019-04-26T04:21:08.194Z,9.40
2019-04-26T04:22:08.255Z,9.40
2019-04-26T04:23:08.181Z,9.33
2019-04-26T04:24:08.152Z,9.38
2019-04-26T04:25:45.341Z,9.36
2019-04-26T04:26:08.184Z,9.38
2019-04-26T04:27:08.159Z,9.38
2019-04-26T04:28:08.107Z,9.32
2019-04-26T04:29:08.096Z,9.39
2019-04-26T04:30:08.094Z,9.39
2019-04-26T04:31:08.073Z,9.38
2019-04-26T04:32:08.101Z,9.33
2019-04-26T04:33:08.057Z,9.29
2019-04-26T04:34:08.036Z,9.39
2019-04-26T04:35:08.026Z,9.36
2019-04-26T04:36:08.072Z,9.32
2019-04-26T04:37:08.007Z,9.33
2019-04-26T04:38:09.844Z,9.36
2019-04-26T04:39:12.261Z,9.38
2019-04-26T04:40:07.968Z,9.36
2019-04-26T04:41:08.594Z,9.35
2019-04-26T04:42:07.942Z,9.35
2019-04-26T04:43:08.026Z,9.38
2019-04-26T04:44:07.978Z,9.36
2019-04-26T04:45:07.901Z,9.36
2019-04-26T04:46:08.101Z,9.39
2019-04-26T04:47:22.957Z,9.33
2019-04-26T04:48:08.908Z,9.50
2019-04-26T04:49:07.939Z,9.47
2019-04-26T04:50:07.869Z,9.57
2019-04-26T04:51:07.912Z,9.61
2019-04-26T04:52:07.828Z,9.61
2019-04-26T04:53:07.820Z,9.66
2019-04-26T04:54:07.867Z,9.68
2019-04-26T04:55:08.224Z,9.76
2019-04-26T04:56:07.833Z,9.78
2019-04-26T04:57:07.792Z,9.84
2019-04-26T04:58:08.802Z,9.89
2019-04-26T04:59:07.848Z,9.84
2019-04-26T05:00:07.776Z,9.97
2019-04-26T05:01:07.744Z,10.11
2019-04-26T05:02:07.758Z,10.04
2019-04-26T05:03:07.723Z,10.12
2019-04-26T05:04:07.755Z,10.12
2019-04-26T05:05:07.751Z,10.18
2019-04-26T05:06:08.107Z,10.23
2019-04-26T05:07:07.675Z,10.34
2019-04-26T05:08:07.678Z,10.34
2019-04-26T05:09:07.686Z,10.47
2019-04-26T05:10:25.860Z,10.42
2019-04-26T05:11:07.708Z,10.51
2019-04-26T05:12:07.601Z,10.48
2019-04-26T05:13:07.641Z,10.61
2019-04-26T05:14:07.612Z,10.71
2019-04-26T05:15:08.581Z,10.76
2019-04-26T05:16:07.634Z,10.81
2019-04-26T05:17:07.585Z,10.86
2019-04-26T05:18:07.581Z,10.84
2019-04-26T05:19:07.641Z,10.91
2019-04-26T05:20:07.533Z,10.91
2019-04-26T05:21:07.501Z,10.88
2019-04-26T05:22:07.518Z,10.99
2019-04-26T05:23:07.500Z,11.09
2019-04-26T05:24:07.625Z,11.07
2019-04-26T05:25:07.493Z,11.14
2019-04-26T05:26:07.452Z,11.24
2019-04-26T05:27:07.471Z,11.33
2019-04-26T05:28:07.442Z,11.33
2019-04-26T05:29:07.486Z,11.43
2019-04-26T05:30:07.460Z,11.42
2019-04-26T05:31:07.392Z,11.46
2019-04-26T05:32:07.383Z,11.54
2019-04-26T05:33:07.393Z,11.58
2019-04-26T05:34:07.384Z,11.58
2019-04-26T05:35:07.471Z,11.61
2019-04-26T05:36:07.579Z,11.78
2019-04-26T05:37:07.313Z,11.88
2019-04-26T05:38:18.002Z,11.78
2019-04-26T05:39:08.387Z,11.88
2019-04-26T05:40:07.323Z,11.90
2019-04-26T05:41:07.278Z,12.05
2019-04-26T05:42:07.289Z,12.13
2019-04-26T05:43:07.347Z,12.13
2019-04-26T05:44:07.330Z,12.24
2019-04-26T05:45:07.302Z,12.32
2019-04-26T05:46:07.279Z,12.32
2019-04-26T05:47:07.288Z,12.42
2019-04-26T05:48:11.623Z,12.59
2019-04-26T05:49:07.226Z,12.54
2019-04-26T05:50:07.181Z,12.64
2019-04-26T05:51:07.259Z,12.82
2019-04-26T05:52:10.444Z,12.70
2019-04-26T05:53:07.164Z,12.83
2019-04-26T05:54:07.206Z,12.86
2019-04-26T05:55:07.155Z,12.87
2019-04-26T05:56:07.129Z,13.04
2019-04-26T05:57:07.141Z,13.08
2019-04-26T05:58:07.101Z,13.19
2019-04-26T05:59:07.106Z,13.26
2019-04-26T06:00:07.100Z,13.42
2019-04-26T06:01:07.107Z,13.54
2019-04-26T06:02:07.071Z,13.67
2019-04-26T06:03:07.031Z,13.77
2019-04-26T06:04:07.020Z,13.87
2019-04-26T06:05:07.031Z,13.91
2019-04-26T06:06:07.034Z,14.03
2019-04-26T06:07:07.038Z,14.14
2019-04-26T06:08:06.957Z,14.24
2019-04-26T06:09:06.962Z,14.32
2019-04-26T06:10:06.966Z,14.40
2019-04-26T06:11:06.926Z,14.62
2019-04-26T06:12:06.960Z,14.77
2019-04-26T06:13:06.943Z,14.77
2019-04-26T06:14:06.886Z,15.03
2019-04-26T06:15:06.887Z,15.09
2019-04-26T06:16:06.876Z,15.20
2019-04-26T06:17:06.862Z,15.38
2019-04-26T06:18:07.003Z,15.57
2019-04-26T06:19:07.724Z,15.75
2019-04-26T06:20:06.836Z,16.09
2019-04-26T06:21:06.897Z,16.89
2019-04-26T06:22:06.806Z,17.66
2019-04-26T06:23:06.858Z,18.54
2019-04-26T06:24:06.799Z,19.28
2019-04-26T06:25:06.859Z,19.68
2019-04-26T06:26:06.819Z,20.21
2019-04-26T06:27:13.556Z,20.42
2019-04-26T06:28:07.775Z,20.74
2019-04-26T06:29:06.743Z,21.01
2019-04-26T06:30:06.747Z,21.22
2019-04-26T06:31:06.689Z,21.65
2019-04-26T06:32:06.820Z,22.07
2019-04-26T06:33:06.673Z,21.80
2019-04-26T06:34:06.659Z,21.71
2019-04-26T06:35:06.685Z,22.14
2019-04-26T06:36:06.673Z,22.46
2019-04-26T06:37:06.618Z,22.75
2019-04-26T06:38:06.626Z,23.00
2019-04-26T06:39:06.638Z,23.28
2019-04-26T06:40:06.640Z,23.51
2019-04-26T06:41:06.598Z,23.70
2019-04-26T06:42:06.566Z,23.78
2019-04-26T06:43:06.551Z,23.80
2019-04-26T06:44:06.553Z,23.94
2019-04-26T06:45:06.604Z,23.84
2019-04-26T06:46:06.533Z,23.65
2019-04-26T06:47:06.754Z,23.19
2019-04-26T06:48:06.537Z,23.20
2019-04-26T06:49:06.497Z,23.19
2019-04-26T06:50:06.508Z,23.09
2019-04-26T06:51:06.942Z,23.13
2019-04-26T06:52:08.499Z,22.97
2019-04-26T06:53:06.492Z,23.28
2019-04-26T06:54:06.430Z,23.51
2019-04-26T06:55:06.783Z,23.57
2019-04-26T06:56:07.431Z,23.76
2019-04-26T06:57:12.216Z,23.94
2019-04-26T06:58:07.252Z,23.98
2019-04-26T06:59:06.384Z,24.12
2019-04-26T07:00:06.626Z,24.10
2019-04-26T07:01:06.388Z,24.16
2019-04-26T07:02:06.400Z,24.24
2019-04-26T07:03:06.345Z,23.98
2019-04-26T07:04:06.387Z,23.83
2019-04-26T07:05:06.962Z,23.79
2019-04-26T07:06:06.620Z,23.83
2019-04-26T07:07:07.423Z,23.85
2019-04-26T07:08:06.883Z,23.91
2019-04-26T07:09:06.286Z,23.97
2019-04-26T07:10:06.353Z,24.03
2019-04-26T07:11:06.908Z,24.06
2019-04-26T07:12:07.212Z,23.93
2019-04-26T07:13:06.279Z,23.68
2019-04-26T07:14:06.878Z,23.54
2019-04-26T07:15:06.210Z,23.31
2019-04-26T07:16:17.994Z,23.13
2019-04-26T07:17:07.882Z,22.90
2019-04-26T07:18:06.423Z,22.88
2019-04-26T07:19:06.188Z,22.77
2019-04-26T07:20:06.177Z,22.79
2019-04-26T07:21:06.981Z,22.83
2019-04-26T07:22:06.216Z,22.88
2019-04-26T07:23:06.152Z,22.73
2019-04-26T07:24:06.145Z,22.49
2019-04-26T07:25:06.103Z,22.20
2019-04-26T07:26:06.182Z,22.07
2019-04-26T07:27:06.076Z,21.99
2019-04-26T07:28:09.398Z,21.91
2019-04-26T07:29:07.204Z,21.99
2019-04-26T07:30:07.116Z,21.91
2019-04-26T07:31:06.244Z,22.02
2019-04-26T07:32:06.045Z,21.96
2019-04-26T07:33:06.283Z,21.94
2019-04-26T07:34:06.002Z,21.88
2019-04-26T07:35:06.718Z,21.83
2019-04-26T07:36:06.017Z,21.79
2019-04-26T07:37:06.765Z,21.86
2019-04-26T07:38:06.902Z,21.96
2019-04-26T07:39:15.532Z,21.92
2019-04-26T07:40:07.063Z,22.09
2019-04-26T07:41:07.175Z,22.06
2019-04-26T07:42:05.946Z,22.09
2019-04-26T07:43:06.068Z,22.05
2019-04-26T07:44:05.884Z,21.90
2019-04-26T07:45:05.879Z,22.03
2019-04-26T07:46:06.002Z,21.86
2019-04-26T07:47:06.021Z,21.74
2019-04-26T07:48:05.877Z,21.75
2019-04-26T07:49:06.007Z,21.58
2019-04-26T07:50:05.839Z,21.77
2019-04-26T07:51:06.482Z,21.72
2019-04-26T07:52:06.441Z,21.58
2019-04-26T07:53:05.827Z,21.68
2019-04-26T07:54:06.677Z,21.56
2019-04-26T07:55:06.632Z,21.61
2019-04-26T07:56:05.820Z,21.59
2019-04-26T07:57:06.663Z,21.47
2019-04-26T07:58:06.891Z,21.44
2019-04-26T07:59:07.090Z,21.44
2019-04-26T08:00:06.525Z,21.54
2019-04-26T08:01:05.713Z,21.67
2019-04-26T08:02:06.652Z,21.72
2019-04-26T08:03:06.865Z,21.71
2019-04-26T08:04:05.694Z,21.62
2019-04-26T08:05:05.890Z,21.52
2019-04-26T08:06:05.832Z,21.53
2019-04-26T08:07:06.332Z,21.62
2019-04-26T08:08:06.788Z,21.65
2019-04-26T08:09:05.963Z,21.82
2019-04-26T08:10:06.011Z,21.96
2019-04-26T08:11:06.233Z,22.17
2019-04-26T08:12:06.081Z,22.43
2019-04-26T08:13:06.109Z,22.62
2019-04-26T08:14:06.201Z,22.77
2019-04-26T08:15:06.077Z,22.88
2019-04-26T08:16:06.744Z,22.86
2019-04-26T08:17:06.567Z,22.88
2019-04-26T08:18:06.579Z,22.86
2019-04-26T08:19:06.930Z,22.88
2019-04-26T08:20:09.238Z,22.91
2019-04-26T08:21:10.332Z,22.88
2019-04-26T08:22:18.300Z,22.83
2019-04-26T08:23:08.646Z,22.88
2019-04-26T08:24:06.450Z,22.91
2019-04-26T08:25:06.686Z,22.64
2019-04-26T08:26:06.551Z,22.45
2019-04-26T08:27:13.657Z,22.36
2019-04-26T08:28:07.367Z,22.22
2019-04-26T08:29:06.536Z,22.25
2019-04-26T08:30:10.248Z,22.36
2019-04-26T08:31:07.305Z,22.31
2019-04-26T08:32:05.354Z,22.37
2019-04-26T08:33:11.341Z,22.45
2019-04-26T08:34:05.885Z,22.54
2019-04-26T08:35:08.266Z,22.61
2019-04-26T08:36:07.276Z,22.68
2019-04-26T08:37:06.708Z,22.76
2019-04-26T08:38:13.567Z,22.83
2019-04-26T08:39:07.002Z,22.95
2019-04-26T08:40:05.282Z,23.09
2019-04-26T08:41:07.125Z,22.98
2019-04-26T08:42:05.250Z,23.09
2019-04-26T08:43:05.266Z,23.10
2019-04-26T08:44:05.758Z,23.09
2019-04-26T08:45:08.885Z,22.82
2019-04-26T08:46:10.089Z,22.76
2019-04-26T08:47:13.885Z,22.54
2019-04-26T08:48:06.162Z,22.28
2019-04-26T08:49:06.494Z,22.21
2019-04-26T08:50:09.692Z,22.07
2019-04-26T08:51:06.158Z,22.15
2019-04-26T08:52:14.409Z,22.18
2019-04-26T08:53:06.140Z,22.30
2019-04-26T08:54:05.108Z,22.31
2019-04-26T08:55:05.119Z,22.25
2019-04-26T08:56:05.080Z,22.36
2019-04-26T08:57:05.079Z,22.27
2019-04-26T08:58:05.789Z,22.27
2019-04-26T08:59:05.092Z,22.45
2019-04-26T09:00:05.078Z,22.49
2019-04-26T09:01:05.042Z,22.55
2019-04-26T09:02:05.010Z,22.31
2019-04-26T09:03:11.404Z,22.20
2019-04-26T09:04:05.986Z,22.10
2019-04-26T09:05:05.043Z,21.88
2019-04-26T09:06:04.968Z,21.67
2019-04-26T09:07:04.959Z,21.47
2019-04-26T09:08:04.966Z,21.44
2019-04-26T09:09:04.930Z,21.32
2019-04-26T09:10:10.732Z,21.38
2019-04-26T09:11:04.914Z,21.42
2019-04-26T09:12:08.158Z,21.44
2019-04-26T09:13:04.902Z,21.53
2019-04-26T09:14:04.878Z,21.50
2019-04-26T09:15:04.907Z,21.46
2019-04-26T09:16:04.976Z,21.49
2019-04-26T09:17:04.856Z,21.47
2019-04-26T09:18:06.074Z,21.46
2019-04-26T09:19:04.840Z,21.52
2019-04-26T09:20:08.011Z,21.54
2019-04-26T09:21:04.807Z,21.58
2019-04-26T09:22:12.917Z,21.62
2019-04-26T09:23:05.839Z,21.61
2019-04-26T09:24:04.762Z,21.74
2019-04-26T09:25:04.801Z,21.90
2019-04-26T09:26:08.715Z,21.90
2019-04-26T09:27:05.790Z,21.77
2019-04-26T09:28:04.740Z,21.67
2019-04-26T09:29:04.732Z,21.59
2019-04-26T09:30:06.145Z,21.47
2019-04-26T09:31:04.688Z,21.56
2019-04-26T09:32:04.729Z,21.59
2019-04-26T09:33:04.696Z,21.67
2019-04-26T09:34:06.288Z,21.75
2019-04-26T09:35:05.684Z,21.82
2019-04-26T09:36:04.651Z,21.92
2019-04-26T09:37:04.620Z,21.94
2019-04-26T09:38:04.597Z,21.91
2019-04-26T09:39:08.259Z,21.86
2019-04-26T09:40:10.593Z,21.88
2019-04-26T09:41:04.643Z,21.68
2019-04-26T09:42:05.941Z,21.62
2019-04-26T09:43:04.571Z,21.61
2019-04-26T09:44:04.573Z,21.54
2019-04-26T09:45:04.539Z,21.50
2019-04-26T09:46:04.593Z,21.50
2019-04-26T09:47:04.506Z,21.42
2019-04-26T09:48:04.529Z,21.32
2019-04-26T09:49:07.146Z,21.21
2019-04-26T09:50:04.510Z,21.19
2019-04-26T09:51:04.465Z,20.99
2019-04-26T09:52:04.472Z,20.94
2019-04-26T09:53:04.452Z,20.80
2019-04-26T09:54:04.426Z,20.73
2019-04-26T09:55:04.520Z,20.66
2019-04-26T09:56:04.521Z,20.72
2019-04-26T09:57:04.388Z,20.72
2019-04-26T09:58:04.398Z,20.73
2019-04-26T09:59:05.807Z,20.80
2019-04-26T10:00:05.362Z,20.89
2019-04-26T10:01:06.179Z,20.95
2019-04-26T10:02:04.342Z,21.14
2019-04-26T10:03:05.428Z,21.29
2019-04-26T10:04:04.313Z,21.34
2019-04-26T10:05:04.388Z,21.35
2019-04-26T10:06:04.301Z,21.47
2019-04-26T10:07:04.317Z,21.52
2019-04-26T10:08:04.270Z,21.53
2019-04-26T10:09:04.279Z,21.54
2019-04-26T10:10:04.325Z,21.52
2019-04-26T10:11:05.686Z,21.59
2019-04-26T10:12:04.255Z,21.59
2019-04-26T10:13:04.240Z,21.68
2019-04-26T10:14:04.217Z,21.90
2019-04-26T10:15:04.227Z,21.82
2019-04-26T10:16:04.353Z,21.92
2019-04-26T10:17:04.199Z,21.94
2019-04-26T10:18:07.996Z,21.98
2019-04-26T10:19:04.151Z,22.03
2019-04-26T10:20:04.162Z,21.86
2019-04-26T10:21:04.204Z,21.80
2019-04-26T10:22:04.111Z,21.64
2019-04-26T10:23:04.120Z,21.67
2019-04-26T10:24:04.084Z,21.68
2019-04-26T10:25:07.699Z,21.75
2019-04-26T10:26:05.152Z,21.86
2019-04-26T10:27:04.942Z,21.96
2019-04-26T10:28:04.050Z,21.99
2019-04-26T10:29:04.036Z,21.94
2019-04-26T10:30:08.975Z,22.14
2019-04-26T10:31:05.025Z,22.05
2019-04-26T10:32:04.033Z,22.17
2019-04-26T10:33:04.000Z,22.24
2019-04-26T10:34:07.698Z,22.24
2019-04-26T10:35:03.971Z,22.12
2019-04-26T10:36:04.016Z,22.03
2019-04-26T10:37:06.024Z,21.90
2019-04-26T10:38:03.952Z,21.80
2019-04-26T10:39:03.917Z,21.75
2019-04-26T10:40:03.943Z,21.75
2019-04-26T10:41:03.903Z,21.68
2019-04-26T10:42:03.909Z,21.62
2019-04-26T10:43:03.880Z,21.62
2019-04-26T10:44:03.923Z,21.54
2019-04-26T10:45:03.891Z,21.46
2019-04-26T10:46:03.847Z,21.43
2019-04-26T10:47:04.473Z,21.28
2019-04-26T10:48:03.853Z,21.25
2019-04-26T10:49:09.695Z,21.25
2019-04-26T10:50:04.879Z,21.16
2019-04-26T10:51:07.272Z,21.16
2019-04-26T10:52:04.820Z,21.10
2019-04-26T10:53:03.768Z,21.10
2019-04-26T10:54:05.885Z,21.09
2019-04-26T10:55:04.296Z,21.16
2019-04-26T10:56:03.740Z,21.25
2019-04-26T10:57:03.735Z,21.40
2019-04-26T10:58:03.745Z,21.47
2019-04-26T10:59:06.126Z,21.44
2019-04-26T11:00:04.723Z,21.42
2019-04-26T11:01:03.675Z,21.46
2019-04-26T11:02:03.670Z,21.38
2019-04-26T11:03:04.415Z,21.34
2019-04-26T11:04:03.678Z,21.42
2019-04-26T11:05:03.677Z,21.27
2019-04-26T11:06:03.672Z,21.35
2019-04-26T11:07:03.610Z,21.40
2019-04-26T11:08:04.592Z,21.35
2019-04-26T11:09:03.614Z,21.37
2019-04-26T11:10:04.252Z,21.50
2019-04-26T11:11:03.644Z,21.43
2019-04-26T11:12:03.556Z,21.31
2019-04-26T11:13:03.557Z,21.16
2019-04-26T11:14:03.534Z,21.17
2019-04-26T11:15:06.077Z,21.34
2019-04-26T11:16:07.131Z,21.50
2019-04-26T11:17:03.554Z,21.54
2019-04-26T11:18:03.515Z,21.62
2019-04-26T11:19:03.487Z,21.77
2019-04-26T11:20:06.348Z,21.72
2019-04-26T11:21:04.498Z,21.71
2019-04-26T11:22:03.450Z,21.75
2019-04-26T11:23:03.427Z,21.80
2019-04-26T11:24:03.442Z,21.75
2019-04-26T11:25:03.433Z,21.92
2019-04-26T11:26:03.429Z,22.07
2019-04-26T11:27:05.403Z,22.21
2019-04-26T11:28:04.365Z,22.33
2019-04-26T11:29:03.416Z,22.31
2019-04-26T11:30:11.604Z,22.39
2019-04-26T11:31:04.386Z,22.24
2019-04-26T11:32:04.291Z,21.98
2019-04-26T11:33:03.323Z,21.96
2019-04-26T11:34:05.500Z,21.88
2019-04-26T11:35:03.296Z,21.75
2019-04-26T11:36:07.052Z,21.54
2019-04-26T11:37:04.814Z,21.24
2019-04-26T11:38:03.266Z,21.19
2019-04-26T11:39:05.692Z,21.16
2019-04-26T11:40:03.804Z,20.94
2019-04-26T11:41:21.361Z,20.77
2019-04-26T11:42:03.218Z,20.57
2019-04-26T11:43:03.222Z,20.55
2019-04-26T11:44:03.351Z,20.52
2019-04-26T11:45:06.413Z,20.72
2019-04-26T11:46:04.645Z,20.84
2019-04-26T11:47:07.525Z,20.87
2019-04-26T11:48:03.421Z,20.97
2019-04-26T11:49:06.772Z,20.92
2019-04-26T11:50:03.200Z,21.01
2019-04-26T11:51:03.151Z,21.06
2019-04-26T11:52:04.088Z,21.10
2019-04-26T11:53:06.305Z,21.07
2019-04-26T11:54:04.113Z,21.06
2019-04-26T11:55:03.062Z,21.13
2019-04-26T11:56:04.494Z,21.25
2019-04-26T11:57:03.038Z,21.25
2019-04-26T11:58:03.100Z,21.28
2019-04-26T11:59:03.025Z,21.35
2019-04-26T12:00:05.583Z,21.35
2019-04-26T12:01:03.003Z,21.37
2019-04-26T12:02:02.989Z,21.06
2019-04-26T12:03:02.998Z,21.12
2019-04-26T12:04:02.958Z,21.09
2019-04-26T12:05:02.953Z,20.98
2019-04-26T12:06:02.949Z,21.12
2019-04-26T12:07:02.937Z,21.10
2019-04-26T12:08:02.974Z,21.21
2019-04-26T12:09:02.918Z,21.49
2019-04-26T12:10:05.890Z,21.71
2019-04-26T12:11:03.918Z,21.74
2019-04-26T12:12:04.947Z,21.59
2019-04-26T12:13:05.812Z,21.75
2019-04-26T12:14:04.124Z,21.71
2019-04-26T12:15:04.054Z,21.75
2019-04-26T12:16:02.826Z,21.72
2019-04-26T12:17:02.813Z,21.69
2019-04-26T12:18:05.512Z,21.88
2019-04-26T12:19:03.847Z,21.99
2019-04-26T12:20:02.799Z,22.15
2019-04-26T12:21:02.794Z,22.24
2019-04-26T12:22:04.250Z,22.30
2019-04-26T12:23:03.748Z,22.39
2019-04-26T12:24:02.793Z,22.45
2019-04-26T12:25:03.411Z,22.31
2019-04-26T12:26:02.720Z,22.14
2019-04-26T12:27:02.741Z,22.17
2019-04-26T12:28:06.170Z,22.18
2019-04-26T12:29:02.705Z,22.27
2019-04-26T12:30:02.712Z,22.27
2019-04-26T12:31:02.664Z,22.10
2019-04-26T12:32:02.647Z,22.14
2019-04-26T12:33:02.650Z,22.12
2019-04-26T12:34:02.627Z,22.09
2019-04-26T12:35:02.605Z,22.24
2019-04-26T12:36:02.614Z,22.18
2019-04-26T12:37:02.598Z,22.27
2019-04-26T12:38:02.580Z,22.10
2019-04-26T12:39:03.311Z,22.12
2019-04-26T12:40:02.569Z,22.06
2019-04-26T12:41:02.582Z,21.99
2019-04-26T12:42:02.571Z,21.91
2019-04-26T12:43:02.536Z,21.91
2019-04-26T12:44:03.247Z,21.92
2019-04-26T12:45:02.504Z,21.92
2019-04-26T12:46:02.508Z,22.00
2019-04-26T12:47:03.441Z,21.83
2019-04-26T12:48:02.487Z,21.92
2019-04-26T12:49:02.458Z,21.94
2019-04-26T12:50:02.453Z,22.03
2019-04-26T12:51:02.497Z,21.94
2019-04-26T12:52:02.484Z,21.90
2019-04-26T12:53:02.545Z,21.62
2019-04-26T12:54:03.763Z,21.31
2019-04-26T12:55:03.421Z,20.99
2019-04-26T12:56:02.413Z,20.80
2019-04-26T12:57:05.790Z,20.64